EHBK/MST METAR and TAF weather

Enter ICAO airport designator
Station Type Date Time Source
EHBK METAR 2019/07/17 13:25 UTC NOAA

EHBK 171325Z AUTO VRB05KT 9999 SCT037 24/12 Q1015 NOSIG


Station Type Date Time Source
EHBK Decoded METAR 2019/07/17 13:25 UTC NOAA

Maastricht Airport Zuid Limburg, Netherlands (EHBK) 50-55N 005-47E 116M
Jul 17, 2019 - 09:25 AM EDT / 2019.07.17 1325 UTC
Wind: Variable at 6 MPH (5 KT):0
Visibility: greater than 7 mile(s):0
Sky conditions: partly cloudy
Temperature: 75 F (24 C)
Dew Point: 53 F (12 C)
Relative Humidity: 46%
Pressure (altimeter): 29.97 in. Hg (1015 hPa)
ob: EHBK 171325Z AUTO VRB05KT 9999 SCT037 24/12 Q1015 NOSIG
cycle: 13

Station Type Date Time Source
EHBK TAF 2019/07/17 12:27 UTC NOAA

TAF EHBK 171111Z 1712/1818 VRB03KT 9999 SCT030
BECMG 1720/1723 12005KT
BECMG 1811/1814 24010KT

Example: see airport list